sensor_id;sensor_type;location;lat;lon;timestamp;pressure;altitude;pressure_sealevel;temperature;humidity
23229;BME280;11783;50.350;6.576;2023-01-15T00:00:10;94708.59;;;5.52;100.00
23229;BME280;11783;50.350;6.576;2023-01-15T00:02:35;94712.41;;;5.39;100.00
23229;BME280;11783;50.350;6.576;2023-01-15T00:05:00;94717.13;;;5.37;100.00
23229;BME280;11783;50.350;6.576;2023-01-15T00:07:28;94706.75;;;5.25;100.00
23229;BME280;11783;50.350;6.576;2023-01-15T00:09:53;94730.50;;;5.30;100.00
23229;BME280;11783;50.350;6.576;2023-01-15T00:12:19;94722.47;;;5.20;100.00
23229;BME280;11783;50.350;6.576;2023-01-15T00:14:44;94732.34;;;5.08;100.00
23229;BME280;11783;50.350;6.576;2023-01-15T00:17:13;94732.34;;;4.86;100.00
23229;BME280;11783;50.350;6.576;2023-01-15T00:19:38;94725.34;;;4.75;100.00
23229;BME280;11783;50.350;6.576;2023-01-15T00:22:06;94723.09;;;4.83;100.00
23229;BME280;11783;50.350;6.576;2023-01-15T00:24:40;94725.91;;;4.77;100.00
23229;BME280;11783;50.350;6.576;2023-01-15T00:27:27;94727.00;;;4.81;100.00
23229;BME280;11783;50.350;6.576;2023-01-15T00:30:10;94721.28;;;4.84;100.00
23229;BME280;11783;50.350;6.576;2023-01-15T00:32:36;94729.59;;;4.59;100.00
23229;BME280;11783;50.350;6.576;2023-01-15T00:35:10;94725.06;;;4.54;100.00
23229;BME280;11783;50.350;6.576;2023-01-15T00:37:41;94734.06;;;4.59;100.00
23229;BME280;11783;50.350;6.576;2023-01-15T00:40:15;94732.06;;;4.66;100.00
23229;BME280;11783;50.350;6.576;2023-01-15T00:42:45;94734.84;;;4.76;100.00
23229;BME280;11783;50.350;6.576;2023-01-15T00:45:14;94732.88;;;4.66;100.00
23229;BME280;11783;50.350;6.576;2023-01-15T00:47:46;94737.03;;;4.45;100.00
23229;BME280;11783;50.350;6.576;2023-01-15T00:50:21;94745.03;;;4.34;100.00
23229;BME280;11783;50.350;6.576;2023-01-15T00:52:52;94744.69;;;4.47;100.00
23229;BME280;11783;50.350;6.576;2023-01-15T00:55:23;94744.06;;;4.40;100.00
23229;BME280;11783;50.350;6.576;2023-01-15T00:57:51;94752.97;;;4.39;100.00
23229;BME280;11783;50.350;6.576;2023-01-15T01:00:16;94739.44;;;4.30;100.00
23229;BME280;11783;50.350;6.576;2023-01-15T01:02:42;94744.53;;;4.37;100.00
23229;BME280;11783;50.350;6.576;2023-01-15T01:05:08;94747.41;;;4.35;100.00
23229;BME280;11783;50.350;6.576;2023-01-15T01:07:33;94743.91;;;4.30;100.00
23229;BME280;11783;50.350;6.576;2023-01-15T01:09:58;94748.53;;;4.22;100.00
23229;BME280;11783;50.350;6.576;2023-01-15T01:12:23;94750.28;;;4.34;100.00
23229;BME280;11783;50.350;6.576;2023-01-15T01:14:50;94737.03;;;4.45;100.00
23229;BME280;11783;50.350;6.576;2023-01-15T01:17:15;94753.06;;;4.44;100.00
23229;BME280;11783;50.350;6.576;2023-01-15T01:19:40;94765.25;;;4.50;100.00
23229;BME280;11783;50.350;6.576;2023-01-15T01:22:06;94767.97;;;4.55;100.00
23229;BME280;11783;50.350;6.576;2023-01-15T01:24:31;94765.50;;;4.48;100.00
23229;BME280;11783;50.350;6.576;2023-01-15T01:26:56;94766.19;;;4.61;100.00
23229;BME280;11783;50.350;6.576;2023-01-15T01:29:22;94776.47;;;4.62;100.00
23229;BME280;11783;50.350;6.576;2023-01-15T01:31:48;94779.50;;;4.71;100.00
23229;BME280;11783;50.350;6.576;2023-01-15T01:34:15;94777.19;;;4.74;100.00
23229;BME280;11783;50.350;6.576;2023-01-15T01:36:42;94776.69;;;4.77;100.00
23229;BME280;11783;50.350;6.576;2023-01-15T01:39:13;94788.09;;;4.83;100.00
23229;BME280;11783;50.350;6.576;2023-01-15T01:41:39;94785.94;;;4.80;100.00
23229;BME280;11783;50.350;6.576;2023-01-15T01:44:07;94779.41;;;4.82;100.00
23229;BME280;11783;50.350;6.576;2023-01-15T01:46:51;94787.28;;;4.82;100.00
23229;BME280;11783;50.350;6.576;2023-01-15T01:49:16;94786.34;;;4.89;100.00
23229;BME280;11783;50.350;6.576;2023-01-15T01:51:49;94786.59;;;4.87;100.00
23229;BME280;11783;50.350;6.576;2023-01-15T01:54:18;94779.97;;;4.84;100.00
23229;BME280;11783;50.350;6.576;2023-01-15T01:56:47;94785.81;;;4.70;100.00
23229;BME280;11783;50.350;6.576;2023-01-15T01:59:14;94795.84;;;4.73;100.00
23229;BME280;11783;50.350;6.576;2023-01-15T02:01:40;94793.78;;;4.58;100.00
23229;BME280;11783;50.350;6.576;2023-01-15T02:04:07;94805.09;;;4.42;100.00
23229;BME280;11783;50.350;6.576;2023-01-15T02:06:33;94801.38;;;4.38;100.00
23229;BME280;11783;50.350;6.576;2023-01-15T02:08:59;94797.47;;;4.40;100.00
23229;BME280;11783;50.350;6.576;2023-01-15T02:11:29;94802.41;;;4.37;100.00
23229;BME280;11783;50.350;6.576;2023-01-15T02:14:01;94797.94;;;4.37;100.00
23229;BME280;11783;50.350;6.576;2023-01-15T02:19:32;94797.22;;;4.42;100.00
23229;BME280;11783;50.350;6.576;2023-01-15T02:25:25;94777.53;;;4.44;100.00
23229;BME280;11783;50.350;6.576;2023-01-15T02:27:57;94782.63;;;4.51;100.00
23229;BME280;11783;50.350;6.576;2023-01-15T02:30:39;94795.53;;;4.19;100.00
23229;BME280;11783;50.350;6.576;2023-01-15T02:33:11;94799.13;;;3.84;100.00
23229;BME280;11783;50.350;6.576;2023-01-15T02:35:49;94784.13;;;3.68;100.00
23229;BME280;11783;50.350;6.576;2023-01-15T02:38:20;94771.53;;;3.53;100.00
23229;BME280;11783;50.350;6.576;2023-01-15T02:40:49;94794.16;;;3.43;100.00
23229;BME280;11783;50.350;6.576;2023-01-15T02:43:16;94805.38;;;3.38;100.00
23229;BME280;11783;50.350;6.576;2023-01-15T02:45:47;94793.28;;;3.25;100.00
23229;BME280;11783;50.350;6.576;2023-01-15T02:48:15;94783.50;;;3.21;100.00
23229;BME280;11783;50.350;6.576;2023-01-15T02:50:47;94775.84;;;3.19;100.00
23229;BME280;11783;50.350;6.576;2023-01-15T02:53:21;94767.41;;;3.17;100.00
23229;BME280;11783;50.350;6.576;2023-01-15T02:55:51;94769.59;;;3.09;100.00
23229;BME280;11783;50.350;6.576;2023-01-15T02:58:28;94769.59;;;3.09;100.00
23229;BME280;11783;50.350;6.576;2023-01-15T03:00:57;94773.34;;;3.13;100.00
23229;BME280;11783;50.350;6.576;2023-01-15T03:03:32;94777.91;;;3.17;100.00
23229;BME280;11783;50.350;6.576;2023-01-15T03:06:08;94779.75;;;3.17;100.00
23229;BME280;11783;50.350;6.576;2023-01-15T03:08:35;94781.72;;;2.98;100.00
23229;BME280;11783;50.350;6.576;2023-01-15T03:11:09;94786.03;;;2.92;100.00
23229;BME280;11783;50.350;6.576;2023-01-15T03:13:45;94777.16;;;2.93;100.00
23229;BME280;11783;50.350;6.576;2023-01-15T03:16:32;94775.78;;;2.91;100.00
23229;BME280;11783;50.350;6.576;2023-01-15T03:19:26;94793.69;;;3.06;100.00
23229;BME280;11783;50.350;6.576;2023-01-15T03:22:04;94792.41;;;2.96;100.00
23229;BME280;11783;50.350;6.576;2023-01-15T03:24:45;94785.16;;;2.87;100.00
23229;BME280;11783;50.350;6.576;2023-01-15T03:27:12;94787.31;;;2.90;100.00
23229;BME280;11783;50.350;6.576;2023-01-15T03:29:41;94780.59;;;2.82;100.00
23229;BME280;11783;50.350;6.576;2023-01-15T03:32:09;94785.47;;;2.79;100.00
23229;BME280;11783;50.350;6.576;2023-01-15T03:34:48;94788.00;;;2.73;100.00
23229;BME280;11783;50.350;6.576;2023-01-15T03:37:14;94790.28;;;2.82;100.00
23229;BME280;11783;50.350;6.576;2023-01-15T03:39:41;94780.03;;;2.80;100.00
23229;BME280;11783;50.350;6.576;2023-01-15T03:44:44;94777.59;;;2.90;100.00
23229;BME280;11783;50.350;6.576;2023-01-15T03:52:41;94790.97;;;2.77;100.00
23229;BME280;11783;50.350;6.576;2023-01-15T03:55:15;94789.81;;;2.73;100.00
23229;BME280;11783;50.350;6.576;2023-01-15T03:58:05;94797.69;;;2.73;100.00
23229;BME280;11783;50.350;6.576;2023-01-15T04:00:41;94804.06;;;2.77;100.00
23229;BME280;11783;50.350;6.576;2023-01-15T04:03:12;94796.91;;;2.84;100.00
23229;BME280;11783;50.350;6.576;2023-01-15T04:05:41;94793.59;;;2.77;100.00
23229;BME280;11783;50.350;6.576;2023-01-15T04:08:11;94775.53;;;2.92;100.00
23229;BME280;11783;50.350;6.576;2023-01-15T04:10:37;94768.69;;;3.03;100.00
23229;BME280;11783;50.350;6.576;2023-01-15T04:13:17;94759.19;;;3.14;100.00
23229;BME280;11783;50.350;6.576;2023-01-15T04:15:48;94782.38;;;3.17;100.00
23229;BME280;11783;50.350;6.576;2023-01-15T04:18:23;94791.28;;;3.04;100.00
23229;BME280;11783;50.350;6.576;2023-01-15T04:20:50;94789.66;;;3.15;100.00
23229;BME280;11783;50.350;6.576;2023-01-15T04:23:19;94797.66;;;3.20;100.00
23229;BME280;11783;50.350;6.576;2023-01-15T04:25:47;94795.81;;;3.20;100.00
23229;BME280;11783;50.350;6.576;2023-01-15T04:28:12;94796.63;;;3.21;100.00
23229;BME280;11783;50.350;6.576;2023-01-15T04:30:46;94799.81;;;3.23;100.00
23229;BME280;11783;50.350;6.576;2023-01-15T04:33:12;94810.41;;;3.28;100.00
23229;BME280;11783;50.350;6.576;2023-01-15T04:35:40;94804.59;;;3.26;100.00
23229;BME280;11783;50.350;6.576;2023-01-15T04:38:05;94803.88;;;3.30;100.00
23229;BME280;11783;50.350;6.576;2023-01-15T04:40:36;94802.78;;;3.15;100.00
23229;BME280;11783;50.350;6.576;2023-01-15T04:43:23;94796.25;;;3.29;100.00
23229;BME280;11783;50.350;6.576;2023-01-15T04:46:07;94794.78;;;3.21;100.00
23229;BME280;11783;50.350;6.576;2023-01-15T04:48:42;94816.69;;;3.27;100.00
23229;BME280;11783;50.350;6.576;2023-01-15T04:51:14;94822.50;;;3.29;100.00
23229;BME280;11783;50.350;6.576;2023-01-15T04:53:42;94818.53;;;3.26;100.00
23229;BME280;11783;50.350;6.576;2023-01-15T04:56:13;94818.28;;;3.28;100.00
23229;BME280;11783;50.350;6.576;2023-01-15T04:58:42;94818.44;;;3.21;100.00
23229;BME280;11783;50.350;6.576;2023-01-15T05:01:15;94820.72;;;3.18;100.00
23229;BME280;11783;50.350;6.576;2023-01-15T05:03:41;94814.31;;;3.14;100.00
23229;BME280;11783;50.350;6.576;2023-01-15T05:06:09;94807.59;;;3.18;100.00
23229;BME280;11783;50.350;6.576;2023-01-15T05:08:38;94808.56;;;3.28;100.00
23229;BME280;11783;50.350;6.576;2023-01-15T05:11:08;94805.41;;;3.26;100.00
23229;BME280;11783;50.350;6.576;2023-01-15T05:13:33;94801.50;;;3.29;100.00
23229;BME280;11783;50.350;6.576;2023-01-15T05:16:19;94806.03;;;3.33;100.00
23229;BME280;11783;50.350;6.576;2023-01-15T05:18:46;94811.22;;;3.28;100.00
23229;BME280;11783;50.350;6.576;2023-01-15T05:21:25;94804.84;;;3.13;100.00
23229;BME280;11783;50.350;6.576;2023-01-15T05:23:53;94796.41;;;3.11;100.00
23229;BME280;11783;50.350;6.576;2023-01-15T05:26:19;94801.31;;;3.19;100.00
23229;BME280;11783;50.350;6.576;2023-01-15T05:28:45;94794.69;;;3.16;100.00
23229;BME280;11783;50.350;6.576;2023-01-15T05:31:13;94806.19;;;3.27;100.00
23229;BME280;11783;50.350;6.576;2023-01-15T05:33:39;94807.22;;;3.14;100.00
23229;BME280;11783;50.350;6.576;2023-01-15T05:36:08;94798.38;;;3.03;100.00
23229;BME280;11783;50.350;6.576;2023-01-15T05:38:34;94806.69;;;3.00;100.00
23229;BME280;11783;50.350;6.576;2023-01-15T05:41:07;94796.66;;;2.86;100.00
23229;BME280;11783;50.350;6.576;2023-01-15T05:43:53;94798.94;;;2.94;100.00
23229;BME280;11783;50.350;6.576;2023-01-15T05:46:18;94794.84;;;2.98;100.00
23229;BME280;11783;50.350;6.576;2023-01-15T05:48:43;94801.78;;;2.92;100.00
23229;BME280;11783;50.350;6.576;2023-01-15T05:51:09;94798.84;;;2.89;100.00
23229;BME280;11783;50.350;6.576;2023-01-15T05:53:34;94794.84;;;2.86;100.00
23229;BME280;11783;50.350;6.576;2023-01-15T05:56:00;94809.31;;;2.89;100.00
23229;BME280;11783;50.350;6.576;2023-01-15T05:58:26;94814.56;;;2.77;100.00
23229;BME280;11783;50.350;6.576;2023-01-15T06:00:51;94810.91;;;2.55;100.00
23229;BME280;11783;50.350;6.576;2023-01-15T06:03:16;94813.31;;;2.56;100.00
23229;BME280;11783;50.350;6.576;2023-01-15T06:05:41;94793.28;;;2.62;100.00
23229;BME280;11783;50.350;6.576;2023-01-15T06:08:07;94797.34;;;2.58;100.00
23229;BME280;11783;50.350;6.576;2023-01-15T06:10:32;94800.91;;;2.52;100.00
23229;BME280;11783;50.350;6.576;2023-01-15T06:12:57;94812.97;;;2.53;100.00
23229;BME280;11783;50.350;6.576;2023-01-15T06:15:23;94810.34;;;2.53;100.00
23229;BME280;11783;50.350;6.576;2023-01-15T06:17:49;94813.09;;;2.58;100.00
23229;BME280;11783;50.350;6.576;2023-01-15T06:20:15;94812.66;;;2.61;100.00
23229;BME280;11783;50.350;6.576;2023-01-15T06:22:40;94818.22;;;2.53;100.00
23229;BME280;11783;50.350;6.576;2023-01-15T06:25:06;94818.91;;;2.60;100.00
23229;BME280;11783;50.350;6.576;2023-01-15T06:27:31;94816.88;;;2.62;100.00
23229;BME280;11783;50.350;6.576;2023-01-15T06:29:56;94806.16;;;2.63;100.00
23229;BME280;11783;50.350;6.576;2023-01-15T06:32:24;94808.78;;;2.63;100.00
23229;BME280;11783;50.350;6.576;2023-01-15T06:34:49;94819.03;;;2.65;100.00
23229;BME280;11783;50.350;6.576;2023-01-15T06:37:14;94829.50;;;2.53;100.00
23229;BME280;11783;50.350;6.576;2023-01-15T06:39:40;94811.28;;;2.47;100.00
23229;BME280;11783;50.350;6.576;2023-01-15T06:42:05;94820.84;;;2.53;100.00
23229;BME280;11783;50.350;6.576;2023-01-15T06:44:49;94805.91;;;2.65;100.00
23229;BME280;11783;50.350;6.576;2023-01-15T06:47:33;94826.78;;;2.60;100.00
23229;BME280;11783;50.350;6.576;2023-01-15T06:49:59;94827.91;;;2.52;100.00
23229;BME280;11783;50.350;6.576;2023-01-15T06:52:27;94822.22;;;2.43;100.00
23229;BME280;11783;50.350;6.576;2023-01-15T06:54:53;94819.47;;;2.38;100.00
23229;BME280;11783;50.350;6.576;2023-01-15T06:57:19;94822.56;;;2.47;100.00
23229;BME280;11783;50.350;6.576;2023-01-15T06:59:45;94835.31;;;2.43;100.00
23229;BME280;11783;50.350;6.576;2023-01-15T07:02:11;94833.72;;;2.42;100.00
23229;BME280;11783;50.350;6.576;2023-01-15T07:04:36;94837.25;;;2.48;100.00
23229;BME280;11783;50.350;6.576;2023-01-15T07:07:02;94854.09;;;2.40;100.00
23229;BME280;11783;50.350;6.576;2023-01-15T07:09:28;94860.53;;;2.45;100.00
23229;BME280;11783;50.350;6.576;2023-01-15T07:11:53;94866.44;;;2.52;100.00
23229;BME280;11783;50.350;6.576;2023-01-15T07:14:24;94886.75;;;2.56;100.00
23229;BME280;11783;50.350;6.576;2023-01-15T07:16:57;94883.78;;;2.53;100.00
23229;BME280;11783;50.350;6.576;2023-01-15T07:19:25;94899.53;;;2.53;100.00
23229;BME280;11783;50.350;6.576;2023-01-15T07:21:51;94895.63;;;2.43;100.00
23229;BME280;11783;50.350;6.576;2023-01-15T07:24:17;94889.44;;;2.26;100.00
23229;BME280;11783;50.350;6.576;2023-01-15T07:26:43;94885.06;;;2.20;100.00
23229;BME280;11783;50.350;6.576;2023-01-15T07:29:09;94874.97;;;2.24;100.00
23229;BME280;11783;50.350;6.576;2023-01-15T07:31:35;94876.91;;;2.28;100.00
23229;BME280;11783;50.350;6.576;2023-01-15T07:34:01;94891.84;;;2.39;100.00
23229;BME280;11783;50.350;6.576;2023-01-15T07:36:26;94890.69;;;2.35;100.00
23229;BME280;11783;50.350;6.576;2023-01-15T07:38:52;94885.91;;;2.32;100.00
23229;BME280;11783;50.350;6.576;2023-01-15T07:41:17;94888.19;;;2.40;100.00
23229;BME280;11783;50.350;6.576;2023-01-15T07:44:01;94879.53;;;2.28;100.00
23229;BME280;11783;50.350;6.576;2023-01-15T07:46:45;94903.78;;;2.24;100.00
23229;BME280;11783;50.350;6.576;2023-01-15T07:49:29;94898.41;;;2.19;100.00
23229;BME280;11783;50.350;6.576;2023-01-15T07:52:14;94896.22;;;2.16;100.00
23229;BME280;11783;50.350;6.576;2023-01-15T07:54:40;94890.28;;;2.08;100.00
23229;BME280;11783;50.350;6.576;2023-01-15T07:57:05;94898.94;;;2.09;100.00
23229;BME280;11783;50.350;6.576;2023-01-15T07:59:31;94902.38;;;2.09;100.00
23229;BME280;11783;50.350;6.576;2023-01-15T08:01:56;94907.06;;;2.19;100.00
23229;BME280;11783;50.350;6.576;2023-01-15T08:04:22;94900.19;;;2.06;100.00
23229;BME280;11783;50.350;6.576;2023-01-15T08:06:47;94929.44;;;2.03;100.00
23229;BME280;11783;50.350;6.576;2023-01-15T08:09:13;94923.09;;;2.11;100.00
23229;BME280;11783;50.350;6.576;2023-01-15T08:11:38;94917.28;;;2.09;100.00
23229;BME280;11783;50.350;6.576;2023-01-15T08:14:22;94919.56;;;2.05;100.00
23229;BME280;11783;50.350;6.576;2023-01-15T08:17:06;94924.59;;;2.07;100.00
23229;BME280;11783;50.350;6.576;2023-01-15T08:19:31;94919.41;;;2.00;100.00
23229;BME280;11783;50.350;6.576;2023-01-15T08:21:57;94918.84;;;1.98;100.00
23229;BME280;11783;50.350;6.576;2023-01-15T08:24:23;94932.66;;;2.05;100.00
23229;BME280;11783;50.350;6.576;2023-01-15T08:26:48;94935.66;;;1.91;100.00
23229;BME280;11783;50.350;6.576;2023-01-15T08:29:14;94936.03;;;1.94;100.00
23229;BME280;11783;50.350;6.576;2023-01-15T08:31:39;94957.88;;;1.88;100.00
23229;BME280;11783;50.350;6.576;2023-01-15T08:34:06;94952.69;;;1.81;100.00
23229;BME280;11783;50.350;6.576;2023-01-15T08:36:31;94953.03;;;1.85;100.00
23229;BME280;11783;50.350;6.576;2023-01-15T08:38:56;94964.25;;;1.92;100.00
23229;BME280;11783;50.350;6.576;2023-01-15T08:41:22;94949.56;;;1.91;100.00
23229;BME280;11783;50.350;6.576;2023-01-15T08:43:47;94962.88;;;1.90;100.00
23229;BME280;11783;50.350;6.576;2023-01-15T08:46:12;94958.59;;;1.77;100.00
23229;BME280;11783;50.350;6.576;2023-01-15T08:48:38;94972.19;;;1.86;100.00
23229;BME280;11783;50.350;6.576;2023-01-15T08:51:08;94970.53;;;1.91;100.00
23229;BME280;11783;50.350;6.576;2023-01-15T08:53:34;94980.19;;;1.91;100.00
23229;BME280;11783;50.350;6.576;2023-01-15T08:56:00;94983.91;;;1.83;100.00
23229;BME280;11783;50.350;6.576;2023-01-15T08:58:30;94975.81;;;1.85;100.00
23229;BME280;11783;50.350;6.576;2023-01-15T09:01:03;94986.69;;;1.88;100.00
23229;BME280;11783;50.350;6.576;2023-01-15T09:03:28;94993.31;;;1.91;100.00
23229;BME280;11783;50.350;6.576;2023-01-15T09:05:57;94988.66;;;1.93;100.00
23229;BME280;11783;50.350;6.576;2023-01-15T09:08:22;94988.50;;;1.88;100.00
23229;BME280;11783;50.350;6.576;2023-01-15T09:10:48;94991.41;;;1.98;100.00
23229;BME280;11783;50.350;6.576;2023-01-15T09:13:13;94998.81;;;2.01;100.00
23229;BME280;11783;50.350;6.576;2023-01-15T09:15:38;94988.19;;;1.96;100.00
23229;BME280;11783;50.350;6.576;2023-01-15T09:18:04;94985.94;;;1.99;100.00
23229;BME280;11783;50.350;6.576;2023-01-15T09:20:29;94989.44;;;1.93;100.00
23229;BME280;11783;50.350;6.576;2023-01-15T09:22:54;94987.19;;;1.97;100.00
23229;BME280;11783;50.350;6.576;2023-01-15T09:25:20;94980.13;;;1.97;100.00
23229;BME280;11783;50.350;6.576;2023-01-15T09:27:48;94992.56;;;2.02;100.00
23229;BME280;11783;50.350;6.576;2023-01-15T09:30:19;94983.97;;;2.13;100.00
23229;BME280;11783;50.350;6.576;2023-01-15T09:32:45;94975.97;;;2.08;100.00
23229;BME280;11783;50.350;6.576;2023-01-15T09:35:10;94973.34;;;2.08;100.00
23229;BME280;11783;50.350;6.576;2023-01-15T09:37:35;94982.38;;;2.12;100.00
23229;BME280;11783;50.350;6.576;2023-01-15T09:40:01;94977.84;;;2.01;100.00
23229;BME280;11783;50.350;6.576;2023-01-15T09:42:35;94977.91;;;2.12;100.00
23229;BME280;11783;50.350;6.576;2023-01-15T09:48:10;95005.50;;;2.15;100.00
23229;BME280;11783;50.350;6.576;2023-01-15T09:56:04;95017.69;;;2.09;100.00
23229;BME280;11783;50.350;6.576;2023-01-15T09:58:39;95026.59;;;2.20;100.00
23229;BME280;11783;50.350;6.576;2023-01-15T10:01:05;95031.13;;;2.13;100.00
23229;BME280;11783;50.350;6.576;2023-01-15T10:03:51;95016.34;;;2.19;100.00
23229;BME280;11783;50.350;6.576;2023-01-15T10:06:23;95029.69;;;2.17;100.00
23229;BME280;11783;50.350;6.576;2023-01-15T10:08:50;95025.47;;;2.16;100.00
23229;BME280;11783;50.350;6.576;2023-01-15T10:11:28;95039.81;;;2.13;100.00
23229;BME280;11783;50.350;6.576;2023-01-15T10:14:33;95037.25;;;2.25;100.00
23229;BME280;11783;50.350;6.576;2023-01-15T10:17:05;95058.22;;;2.25;100.00
23229;BME280;11783;50.350;6.576;2023-01-15T10:19:42;95052.09;;;2.13;100.00
23229;BME280;11783;50.350;6.576;2023-01-15T10:22:16;95074.38;;;2.22;100.00
23229;BME280;11783;50.350;6.576;2023-01-15T10:24:55;95067.75;;;2.20;100.00
23229;BME280;11783;50.350;6.576;2023-01-15T10:27:28;95064.56;;;2.18;100.00
23229;BME280;11783;50.350;6.576;2023-01-15T10:30:05;95067.53;;;2.21;100.00
23229;BME280;11783;50.350;6.576;2023-01-15T10:32:50;95085.88;;;2.21;100.00
23229;BME280;11783;50.350;6.576;2023-01-15T10:46:16;95069.50;;;2.26;100.00
23229;BME280;11783;50.350;6.576;2023-01-15T10:48:48;95060.84;;;2.25;100.00
23229;BME280;11783;50.350;6.576;2023-01-15T10:51:23;95062.06;;;2.23;100.00
23229;BME280;11783;50.350;6.576;2023-01-15T10:54:12;95071.69;;;2.29;100.00
23229;BME280;11783;50.350;6.576;2023-01-15T10:57:31;95066.22;;;2.30;100.00
23229;BME280;11783;50.350;6.576;2023-01-15T10:59:52;95068.19;;;2.35;100.00
23229;BME280;11783;50.350;6.576;2023-01-15T11:02:25;95064.66;;;2.41;100.00
23229;BME280;11783;50.350;6.576;2023-01-15T11:04:55;95076.56;;;2.43;100.00
23229;BME280;11783;50.350;6.576;2023-01-15T11:07:25;95079.53;;;2.47;100.00
23229;BME280;11783;50.350;6.576;2023-01-15T11:09:53;95067.59;;;2.51;100.00
23229;BME280;11783;50.350;6.576;2023-01-15T11:12:25;95067.50;;;2.58;100.00
23229;BME280;11783;50.350;6.576;2023-01-15T11:14:52;95059.06;;;2.56;100.00
23229;BME280;11783;50.350;6.576;2023-01-15T11:17:45;95056.78;;;2.59;100.00
23229;BME280;11783;50.350;6.576;2023-01-15T11:20:30;95059.25;;;2.72;100.00
23229;BME280;11783;50.350;6.576;2023-01-15T11:22:56;95047.16;;;2.71;100.00
23229;BME280;11783;50.350;6.576;2023-01-15T11:25:31;95062.88;;;2.71;100.00
23229;BME280;11783;50.350;6.576;2023-01-15T11:27:59;95047.69;;;2.62;100.00
23229;BME280;11783;50.350;6.576;2023-01-15T11:30:33;95049.66;;;2.78;100.00
23229;BME280;11783;50.350;6.576;2023-01-15T11:33:05;95047.72;;;2.73;100.00
23229;BME280;11783;50.350;6.576;2023-01-15T11:35:32;95034.25;;;2.70;100.00
23229;BME280;11783;50.350;6.576;2023-01-15T11:38:06;95054.66;;;2.68;100.00
23229;BME280;11783;50.350;6.576;2023-01-15T11:40:35;95024.09;;;2.73;100.00
23229;BME280;11783;50.350;6.576;2023-01-15T11:43:00;95033.84;;;2.85;100.00
23229;BME280;11783;50.350;6.576;2023-01-15T11:45:54;95033.63;;;2.86;100.00
23229;BME280;11783;50.350;6.576;2023-01-15T11:48:47;95023.75;;;3.00;100.00
23229;BME280;11783;50.350;6.576;2023-01-15T11:51:43;95013.81;;;3.14;100.00
23229;BME280;11783;50.350;6.576;2023-01-15T11:54:13;95012.78;;;3.15;100.00
23229;BME280;11783;50.350;6.576;2023-01-15T11:56:44;95010.63;;;3.12;100.00
23229;BME280;11783;50.350;6.576;2023-01-15T11:59:15;95012.44;;;3.11;100.00
23229;BME280;11783;50.350;6.576;2023-01-15T12:01:55;95005.38;;;3.12;100.00
23229;BME280;11783;50.350;6.576;2023-01-15T12:04:35;95001.88;;;3.18;100.00
23229;BME280;11783;50.350;6.576;2023-01-15T12:07:04;94993.28;;;3.11;100.00
23229;BME280;11783;50.350;6.576;2023-01-15T12:15:05;95018.84;;;3.15;100.00
23229;BME280;11783;50.350;6.576;2023-01-15T12:23:31;95021.34;;;3.10;100.00
23229;BME280;11783;50.350;6.576;2023-01-15T12:29:18;95006.28;;;3.06;100.00
23229;BME280;11783;50.350;6.576;2023-01-15T12:34:24;94996.00;;;3.16;100.00
23229;BME280;11783;50.350;6.576;2023-01-15T12:39:21;94993.19;;;3.17;100.00
23229;BME280;11783;50.350;6.576;2023-01-15T12:41:53;95009.38;;;3.14;100.00
23229;BME280;11783;50.350;6.576;2023-01-15T12:44:45;95003.53;;;3.12;100.00
23229;BME280;11783;50.350;6.576;2023-01-15T12:50:14;95000.13;;;3.12;100.00
23229;BME280;11783;50.350;6.576;2023-01-15T12:52:51;95006.09;;;3.19;100.00
23229;BME280;11783;50.350;6.576;2023-01-15T12:55:25;94989.41;;;3.13;100.00
23229;BME280;11783;50.350;6.576;2023-01-15T12:58:00;94989.63;;;3.12;100.00
23229;BME280;11783;50.350;6.576;2023-01-15T13:00:45;95009.47;;;3.08;100.00
23229;BME280;11783;50.350;6.576;2023-01-15T13:03:20;95015.19;;;3.04;100.00
23229;BME280;11783;50.350;6.576;2023-01-15T13:05:53;95005.59;;;3.10;100.00
23229;BME280;11783;50.350;6.576;2023-01-15T13:09:04;95006.16;;;3.12;100.00
23229;BME280;11783;50.350;6.576;2023-01-15T13:11:32;95004.81;;;3.10;100.00
23229;BME280;11783;50.350;6.576;2023-01-15T13:14:01;95008.22;;;3.10;100.00
23229;BME280;11783;50.350;6.576;2023-01-15T13:16:37;94998.63;;;3.04;100.00
23229;BME280;11783;50.350;6.576;2023-01-15T13:19:22;94999.66;;;3.15;100.00
23229;BME280;11783;50.350;6.576;2023-01-15T13:21:52;95000.13;;;3.12;100.00
23229;BME280;11783;50.350;6.576;2023-01-15T13:27:26;94997.38;;;3.07;100.00
23229;BME280;11783;50.350;6.576;2023-01-15T13:30:14;94996.00;;;3.16;100.00
23229;BME280;11783;50.350;6.576;2023-01-15T13:32:47;94997.41;;;3.18;100.00
23229;BME280;11783;50.350;6.576;2023-01-15T13:35:44;95004.13;;;3.14;100.00
23229;BME280;11783;50.350;6.576;2023-01-15T13:38:17;94996.69;;;3.11;100.00
23229;BME280;11783;50.350;6.576;2023-01-15T13:40:47;94999.78;;;3.08;100.00
23229;BME280;11783;50.350;6.576;2023-01-15T13:43:41;94990.41;;;3.12;100.00
23229;BME280;11783;50.350;6.576;2023-01-15T13:46:12;94992.69;;;3.09;100.00
23229;BME280;11783;50.350;6.576;2023-01-15T13:48:50;95013.72;;;3.20;100.00
23229;BME280;11783;50.350;6.576;2023-01-15T13:51:45;95010.28;;;3.08;100.00
23229;BME280;11783;50.350;6.576;2023-01-15T13:54:14;95006.41;;;3.11;100.00
23229;BME280;11783;50.350;6.576;2023-01-15T13:56:44;95009.94;;;3.04;100.00
23229;BME280;11783;50.350;6.576;2023-01-15T13:59:30;95000.59;;;3.09;100.00
23229;BME280;11783;50.350;6.576;2023-01-15T14:01:59;95005.94;;;3.02;100.00
23229;BME280;11783;50.350;6.576;2023-01-15T14:04:39;94997.16;;;3.08;100.00
23229;BME280;11783;50.350;6.576;2023-01-15T14:07:17;94998.88;;;3.14;100.00
23229;BME280;11783;50.350;6.576;2023-01-15T14:09:43;95007.19;;;3.11;100.00
23229;BME280;11783;50.350;6.576;2023-01-15T14:12:42;95023.41;;;3.08;100.00
23229;BME280;11783;50.350;6.576;2023-01-15T14:15:24;95011.03;;;2.97;100.00
23229;BME280;11783;50.350;6.576;2023-01-15T14:26:58;95018.16;;;3.08;100.00
23229;BME280;11783;50.350;6.576;2023-01-15T14:34:59;95031.16;;;3.03;100.00